WFO Denver/Boulder


Hot-Air Balloon Forecast for Colorado
National Weather Service Denver/Boulder, Colorado
0105 MDT Wednesday, October 22, 2014

COLORADO SYNOPSIS VALID 22/0600Z-22/1800Z UPPER LEVEL TROUGH AND 
COLD FRONT WILL CONTINUE TO MOVE ACROSS THE ROCKIES. SOUTHWEST FLOW 
ALOFT WILL BECOME WESTERLY. AIRMASS MOIST AND SLIGHTLY UNSTABLE.

* * * * * Northeast Colorado * * * * *

METAR KFNL 220655Z AUTO 02010KT 10SM CLR 13/06 A2999 RMK AO1
METAR KFNL 220635Z AUTO 02009KT 10SM CLR 13/06 A2998 RMK AO1
METAR KFNL 220615Z AUTO 36008KT 10SM CLR 13/05 A2998 RMK AO1

METAR KGXY 220655Z AUTO 01009KT 10SM CLR 13/07 A2997 RMK AO1
METAR KGXY 220635Z AUTO 01009KT 10SM CLR 12/07 A2996 RMK AO1
METAR KGXY 220615Z AUTO 31009KT 10SM FEW029 FEW038 SCT085 14/06 A2997
       RMK AO1

METAR KLMO 220653Z AUTO 06004KT 10SM CLR 12/08 A3000 RMK AO2
       T01210082
METAR KLMO 220633Z AUTO 00000KT 10SM CLR 13/08 A2997 RMK AO2
       T01340078
METAR KLMO 220613Z AUTO 00000KT 10SM CLR 14/08 A2997 RMK AO2
       T01390075

METAR KBDU 220656Z AUTO 19004KT 10SM SCT110 13/05 A2997 RMK AO2 LTG DSNT
       W
METAR KBDU 220636Z AUTO 00000KT 10SM BKN110 14/05 A2997 RMK AO2
METAR KBDU 220616Z AUTO 14004KT 10SM BKN120 14/05 A2997 RMK AO2

METAR KEIK 220655Z AUTO 00000KT 10SM SCT090 SCT120 12/09 A2997 RMK AO2
       LTG DSNT SW T01190087
METAR KEIK 220635Z AUTO 00000KT 10SM SCT085 BKN120 12/09 A2996 RMK AO2
       T01220088
METAR KEIK 220615Z AUTO 00000KT 10SM OVC090 13/09 A2997 RMK AO2
       T01300088

KBJC 220527Z 2206/2306 31007KT P6SM VCSH BKN080 BKN200
     FM220800 30006KT P6SM SCT100 BKN200
     FM221500 VRB06KT P6SM SCT080 BKN150
     FM221900 10007KT P6SM VCSH SCT060 BKN140
     FM230000 13006KT P6SM SCT080 BKN200
     FM230300 24007KT P6SM SCT100 BKN200
METAR KBJC 220655Z AUTO 33007KT 10SM SCT120 12/07 A2999 RMK AO2 LTG DSNT
       W
METAR KBJC 220635Z AUTO 24006KT 10SM BKN110 12/07 A2999 RMK AO2
METAR KBJC 220615Z AUTO 01005KT 10SM -RA SCT055 SCT065 BKN110 13/07
       A2999 RMK AO2

KDEN 220527Z 2206/2312 31010KT P6SM VCSH SCT080 OVC140
      TEMPO 2206/2208 30015G25KT -SHRA BKN080
     FM220800 24007KT P6SM VCSH SCT080 BKN150
     FM221000 21009KT P6SM SCT120 BKN200
     FM221500 VRB06KT P6SM SCT080 BKN150
     FM221900 10007KT P6SM VCSH SCT060 BKN140
     FM230000 13006KT P6SM SCT080 BKN200
     FM230300 20007KT P6SM SCT100 BKN200
METAR KDEN 220653Z 26011KT 10SM -RA OVC070 14/06 A3000 RMK AO2
       RAB19E32B52 SLP088 P0000 T01390056 402610089
METAR KDEN 220553Z 00000KT 10SM BKN110 OVC140 13/04 A2997 RMK AO2 SLP083
       T01330039 10206 20117 51007
METAR KDEN 220453Z 27007KT 10SM SCT100 BKN140 OVC220 14/04 A2996 RMK AO2
       SLP082 T01390039

METAR KFTG 220618Z AUTO 27007KT 10SM BKN100 13/05 A2999 RMK AO2
METAR KFTG 220600Z AUTO 27008KT 10SM SCT110 13/05 A2998 RMK AO2
METAR KFTG 220540Z AUTO 27012KT 10SM SCT110 13/05 A2998 RMK AO2

KBKF 2201/2307 15009KT 9000 -SHRA SCT080 BKN120 QNH2992INS
     BECMG 2208/2209 VRB06KT 9999 NSW FEW140 QNH2996INS
     BECMG 2216/2217 17012KT 9999 FEW140 QNH3008INS
     BECMG 2221/2222 VRB15G25KT 8000 -TSRAGS OVC050CB QNH3010INS
     BECMG 2300/2301 15009KT 9000 -SHRA SCT060 BKN100 QNH3006INS
     TX26/2221Z TN09/2211Z AMD 220123
METAR KBKF 220658Z 02006KT 10SM -RA FEW060 BKN075 BKN100 12/06 A3001 RMK
       AO2A RAB0640 SLP097 P0000 T01230060 402410108
SPECI KBKF 220640Z 00000KT 9SM -RA BKN075 BKN100 13/05 A3002 RMK
       AO2A
METAR KBKF 220558Z 16004KT 10SM FEW060 BKN100 BKN200 12/05 A2999 RMK
       AO2A SLP094 T01210045 10182 20120 50008

KAPA 220527Z 2206/2306 34006KT P6SM VCSH BKN100 OVC200
      TEMPO 2206/2208 31015G25KT -SHRA BKN080
     FM220800 20008KT P6SM SCT120 BKN200
     FM221500 VRB06KT P6SM SCT080 BKN150
     FM221900 10007KT P6SM VCSH SCT060 BKN140
     FM230000 13006KT P6SM SCT080 BKN200
     FM230300 20007KT P6SM SCT100 BKN200
METAR KAPA 220653Z 10009KT 10SM -RA BKN075 OVC085 12/06 A3000 RMK AO2
       RAB14E24B50 SLP103 P0000 T01220056 402330083
METAR KAPA 220553Z 18006KT 10SM BKN100 OVC120 12/05 A2999 RMK AO2 SLP104
       T01170050 10189 20117 51007
METAR KAPA 220453Z 00000KT 10SM BKN100 BKN200 13/04 A2999 RMK AO2 SLP101
       T01280044

METAR KMNH 220652Z AUTO 27004KT 10SM SCT100 BKN120 10/02 A3005 RMK AO2
       LTG DSNT W
METAR KMNH 220632Z AUTO 00000KT 10SM SCT095 BKN120 10/02 A3005 RMK
       AO2
METAR KMNH 220612Z AUTO 28004KT 10SM OVC085 10/02 A3005 RMK AO2

METAR KFMM 220655Z AUTO 35014KT 10SM BKN100 BKN120 15/06 A2994 RMK AO2
       T01500060
METAR KFMM 220635Z AUTO 34014KT 10SM SCT120 15/06 A2994 RMK AO2
       T01520060
METAR KFMM 220615Z AUTO 34015G21KT 10SM CLR 15/06 A2992 RMK AO2
       T01500060

METAR KSTK 220655Z AUTO 01005KT 10SM CLR 12/06 A2990 RMK AO2 LTG DSNT
       W
METAR KSTK 220635Z AUTO 00000KT 10SM CLR 12/06 A2990 RMK AO2
METAR KSTK 220615Z AUTO 18003KT 10SM CLR 15/06 A2989 RMK AO2

METAR KAKO 220653Z AUTO 24006KT 10SM CLR 12/06 A2992 RMK AO2 SLP082
       T01220061 402670094
METAR KAKO 220553Z AUTO 20009KT 10SM CLR 13/06 A2991 RMK AO2 SLP082
       T01280061 10206 20128 50000
METAR KAKO 220453Z AUTO 18011KT 10SM CLR 14/07 A2991 RMK AO2 SLP084
       T01440067

METAR KLIC 220655Z AUTO 00000KT 10SM SCT100 BKN120 09/06 A2998 RMK AO2
       SLP097 T00940061 402280011
METAR KLIC 220555Z AUTO 29004KT 10SM CLR 10/06 A2999 RMK AO2 SLP100
       T01000061 10178 20094 53007
METAR KLIC 220455Z AUTO 13008KT 10SM CLR 11/06 A2997 RMK AO2 SLP098
       T01060056

METAR KHEQ 220655Z AUTO 17004KT 10SM CLR 12/07 A2990 RMK AO2
METAR KHEQ 220635Z AUTO 16004KT 10SM CLR 13/07 A2990 RMK AO2
METAR KHEQ 220615Z AUTO 17004KT 10SM CLR 13/07 A2990 RMK AO2

METAR K2V5 220655Z AUTO 18010G15KT 10SM CLR 16/08 A2990 RMK AO2
       T01600080
METAR K2V5 220635Z AUTO 18009KT 10SM CLR 16/08 A2990 RMK AO2
       T01620080
METAR K2V5 220615Z AUTO 16008KT 10SM CLR 16/08 A2990 RMK AO2
       T01610079

METAR KITR 220653Z AUTO 18013KT 10SM CLR 13/07 A2994 RMK AO2 SLP095
       T01330067 402610100
METAR KITR 220553Z AUTO 18014KT 10SM CLR 14/07 A2995 RMK AO2 SLP096
       T01440067 10211 20144 58003
METAR KITR 220453Z AUTO 18017KT 10SM CLR 16/07 A2996 RMK AO2 SLP102
       T01560067

Sunrise/Sunset for 10/22/2014
Fort Collins - 07:19:05 MDT / 18:11:21 MDT
Denver       - 07:17:35 MDT / 18:11:59 MDT
Sterling     - 07:11:47 MDT / 18:03:49 MDT

Denver/Boulder (KFTG) 10/22/14 06:57 UTC
Radar VAD winds      Height      Dir/Spd(kt)
                  28000 FT MSL...224/009
                  27100 FT MSL...216/012
                  26000 FT MSL...208/014
                  25000 FT MSL...205/017
                  24000 FT MSL...208/020
                  23000 FT MSL...206/022
                  22000 FT MSL...204/020
                  20000 FT MSL...207/018
                  19500 FT MSL...205/017
                  19000 FT MSL...206/016
                  18000 FT MSL...204/017
                  17000 FT MSL...205/017
                  16800 FT MSL...214/016
                  16000 FT MSL...212/015
                  15000 FT MSL...223/015
                  14600 FT MSL...245/017
                  14000 FT MSL...247/015
                  13000 FT MSL...265/016
                  12700 FT MSL...272/016
                  12000 FT MSL...274/015
                  11200 FT MSL...283/015
                  11000 FT MSL...283/015
                  10000 FT MSL...280/017
                  10000 FT MSL...282/016
                   9000 FT MSL...282/016
                   9000 FT MSL...279/017
                   8100 FT MSL...293/014
                   8000 FT MSL...284/018
                   7400 FT MSL...313/013
                   7000 FT MSL...292/021
                   6700 FT MSL...338/013
                   6200 FT MSL...300/018
                   6000 FT MSL...300/017
                   5900 FT MSL...296/016

Denver/Boulder Aviation Discussion
Issued at 0155 UTC Wednesday, October 22, 2014

.AVIATION...(FOR THE TAFS THROUGH 06Z WEDNESDAY EVENING)
ISSUED AT 754 PM MDT TUE OCT 21 2014
VFR CONDITIONS EXPECTED THROUGH WEDNESDAY...THOUGH THERE COULD BE
A PERIOD OF A FEW HOURS WITH CEILINGS BELOW 6000 FEET AROUND
SUNRISE AS A BAND OF SHOWERS PASSES. SOME VARIABILITY IN THE WINDS
THE NEXT FEW HOURS WITH SHOWERS...MAINLY VARYING BETWEEN
NORTHWEST AND SOUTHWEST. 


* * * * * Southeast Colorado * * * * *


METAR KAFF 220658Z AUTO 28010G15KT 250V310 10SM SCT090 14/03 A3002 RMK
       AO2 PK WND 28027/55 SLP088 T01380026 402090016
SPECI KAFF 220631Z AUTO 33012G21KT 300V360 10SM FEW110 14/02 A3003 RMK
       AO2 WSHFT 29
SPECI KAFF 220614Z AUTO 31011G15KT 10SM SCT120 14/02 A3003 RMK AO2 WSHFT
       12

KCOS 220536Z 2206/2306 01009KT P6SM VCSH SCT090 OVC120
     FM221200 VRB06KT P6SM SCT090 BKN150
     FM221800 15008KT P6SM SCT100 SCT150
     FM222100 16011KT P6SM VCSH SCT090 BKN140
     FM230200 VRB06KT P6SM SCT090 BKN140
     FM230500 VRB05KT P6SM SCT140
METAR KCOS 220654Z 34010KT 10SM BKN130 BKN210 16/03 A3001 RMK AO2 SLP085
       T01560028 402170044
METAR KCOS 220554Z 34010KT 10SM BKN160 BKN210 14/04 A3000 RMK AO2 SLP091
       T01390039 10183 20100 50002
METAR KCOS 220454Z 36007KT 10SM BKN170 11/06 A3001 RMK AO2 SLP108
       T01060056

METAR KABH 220656Z AUTO 04007KT 10SM FEW100 09/05 A3000 RMK AO2 SLP102
       T00940050 $
METAR KABH 220556Z AUTO 34005KT 10SM BKN110 10/05 A2999 RMK AO2 SLP104
       T01000050 10178 20094 402170028 51005 $
METAR KABH 220456Z AUTO 17006KT 10SM CLR 11/06 A2999 RMK AO2 SLP109
       T01060056 $

METAR KFLY 220654Z AUTO 30014G17KT 10SM OVC110 14/02 A3005 RMK AO2 LTG
       DSNT W T01350019 402040032
METAR KFLY 220634Z AUTO 31012G19KT 10SM OVC110 14/02 A3005 RMK AO2
       T01350018
METAR KFLY 220614Z AUTO 31012G19KT 10SM BKN100 14/02 A3005 RMK AO2
       T01350019

KFCS 2205/2311 32009KT 9999 VCSH SCT080 BKN150 QNH2998INS
     BECMG 2211/2212 34009KT 9999 FEW080 QNH2993INS
     BECMG 2222/2223 16012G18KT 9999 VCTS BKN100CB QNH2994INS
     BECMG 2306/2307 30009KT 9999 NSW FEW150 QNH3001INS TX20/2221Z
     TN11/2311Z
METAR KFCS 220658Z AUTO 36002KT 10SM BKN100 OVC120 12/04 A2998 RMK AO2
       SLP110 T01160043 402250053
METAR KFCS 220558Z AUTO 30003KT 10SM BKN120 11/04 A2998 RMK AO2 SLP119
       T01080035 10183 20108 51005
METAR KFCS 220458Z AUTO 34009KT 10SM FEW160 12/04 A2998 RMK AO2 SLP124
       T01160037

KPUB 220531Z 2206/2306 29008KT P6SM SCT110 OVC150
     FM221200 VRB06KT P6SM SCT100 BKN200
     FM221600 VRB06KT P6SM SCT120 SCT200
     FM222100 12008KT P6SM SCT120 BKN140
     FM230400 VRB06KT P6SM SCT140
METAR KPUB 220653Z AUTO 11003KT 10SM CLR 12/05 A2994 RMK AO2 SLP092
       T01170050 402610044
METAR KPUB 220553Z AUTO 27006KT 10SM CLR 11/05 A2993 RMK AO2 SLP092
       T01110050 10228 20111 50008
METAR KPUB 220453Z AUTO 30006KT 10SM CLR 13/04 A2993 RMK AO2 SLP092
       T01280044

METAR KVTP 220650Z AUTO 20010G17KT 150V250 10SM SCT015 BKN021 04/02
       A3024 RMK AO2 LTG DSNT N
METAR KVTP 220629Z AUTO 19011G22KT 10SM SCT019 04/01 A3024 RMK AO2
METAR KVTP 220612Z AUTO 19010G20KT 10SM SCT015 SCT021 SCT026 04/01 A3023
       RMK AO2

METAR KTAD 220654Z AUTO 25012KT 10SM SCT110 13/07 A3002 RMK AO2 SLP100
       T01330072 402280089
METAR KTAD 220554Z AUTO 23011KT 10SM SCT110 14/07 A3001 RMK AO2 SLP093
       T01390067 10178 20122 50001
METAR KTAD 220454Z AUTO 00000KT 10SM CLR 14/07 A3002 RMK AO2 SLP104
       T01390067

METAR KLHX 220653Z AUTO 21012KT 10SM CLR 17/09 A2993 RMK AO2 SLP080
       T01670089 402720056
METAR KLHX 220553Z AUTO 20016G23KT 10SM CLR 18/09 A2993 RMK AO2 PK WND
       20026/0531 SLP079 T01780089 10222 20178 58001
METAR KLHX 220453Z AUTO 20012G21KT 10SM CLR 18/08 A2993 RMK AO2 SLP087
       T01780083

METAR KLAA 220653Z AUTO 18014KT 10SM CLR 14/09 A2992 RMK AO2 SLP089
       T01440089 402780050
METAR KLAA 220553Z AUTO 18016G23KT 10SM CLR 16/09 A2992 RMK AO2 SLP088
       T01610089 10228 20161 50000
METAR KLAA 220453Z AUTO 19015KT 10SM CLR 17/09 A2993 RMK AO2 SLP095
       T01670089

METAR KSPD 220656Z AUTO 21006KT 12/09 A3001 RMK AO1 SLP113 T01220094
       402390061
METAR KSPD 220556Z AUTO 21008KT 13/09 A3001 RMK AO1 SLP112 T01280094
       10194 20122 58002
METAR KSPD 220456Z AUTO 19013KT 12/09 A3002 RMK AO1 SLP117 T01220089

Sunrise/Sunset for 10/22/2014
Burlington - 07:06:17 MDT / 18:01:46 MDT
Pueblo     - 07:14:22 MDT / 18:12:25 MDT
Lamar      - 07:06:08 MDT / 18:04:38 MDT

Pueblo (KPUX) 10/22/14 06:57 UTC
Radar VAD winds      Height      Dir/Spd(kt)
                  19000 FT MSL...241/018
                  18000 FT MSL...235/019
                  17000 FT MSL...240/016
                  16600 FT MSL...260/018
                  16000 FT MSL...241/013
                  15000 FT MSL...248/026
                  14000 FT MSL...231/013
                  13000 FT MSL...349/023
                  12000 FT MSL...320/017
                  11000 FT MSL...325/028
                  10900 FT MSL...323/017
                  10000 FT MSL...332/025
                   9700 FT MSL...331/025
                   9000 FT MSL...329/031
                   8700 FT MSL...327/030
                   8000 FT MSL...327/034
                   7900 FT MSL...325/033
                   7100 FT MSL...326/032
                   7000 FT MSL...324/030
                   6400 FT MSL...336/025
                   6000 FT MSL...332/020
                   5900 FT MSL...328/018
                   5700 FT MSL...329/013

Pueblo Aviation Discussion
Issued at 0540 UTC Wednesday, October 22, 2014

.AVIATION...(FOR THE 06Z TAFS THROUGH 06Z WEDNESDAY NIGHT)
ISSUED AT 1135 PM MDT TUE OCT 21 2014
KCOS AND KPUB SHOULD HAVE VFR CONDITIONS THROUGH WEDNESDAY
EVENING. KCOS MAY SEE SOME SHOWERS IN THE AREA TONIGHT AND AGAIN
ON WEDNESDAY AFTERNOON. KPUB COULD ALSO SEE SOME SHOWERS IN THE
AREA TONIGHT...BUT CHANCES ARE TOO LOW TO INCLUDE IN THE TERMINAL
FORECAST AT THIS TIME. KALS COULD ALSO HAVE SOME SHOWERS IN THE
AREA TONIGHT...AND THEN AGAIN ON WED AFTERNOON. BUFKIT SOUNDINGS
AND MOS GUIDANCE ARE ALSO INDICATING THE CHANCE FOR SOME LOW
STRATUS AND FOG TOWARD MORNING AT KALS...BUT CONFIDENCE IN THIS
OCCURRING IS TOO LOW TO INCLUDE IN THE TAF AT THIS TIME.


* * * * * Northwest Colorado * * * * *

METAR KCAG 220653Z AUTO 16019G24KT 6SM RA OVC041 07/04 A3012 RMK AO2
       SLP154 P0009 T00720039 402110006 $
SPECI KCAG 220611Z AUTO 19011KT 7SM RA SCT022 SCT027 OVC040 08/05 A3014
       RMK AO2 P0003 T00780050 $
METAR KCAG 220553Z AUTO 18006KT 7SM RA BKN025 OVC034 08/06 A3015 RMK AO2
       SLP169 P0005 60015 T00780056 10156 20072 51020 $

METAR KHDN 220655Z AUTO 19007KT 10SM FEW020 OVC032 06/04 A3017 RMK AO1
       P0009
METAR KHDN 220635Z AUTO 21006KT 8SM FEW016 SCT022 BKN027 06/04 A3017 RMK
       AO1 P0005
METAR KHDN 220615Z AUTO 19003KT 6SM FEW013 SCT020 BKN027 06/04 A3016 RMK
       AO1 P0002


METAR K33V 220655Z AUTO 15004KT 10SM BKN055 BKN070 OVC085 02/01 A3016
       RMK AO2
METAR K33V 220635Z AUTO 14004KT 10SM BKN055 BKN070 OVC080 03/02 A3016
       RMK AO2
METAR K33V 220615Z AUTO 03003KT 10SM SCT025 BKN055 OVC075 03/02 A3016
       RMK AO2

METAR KEEO 220653Z AUTO 10SM -RA OVC049 07/04 A3014 RMK AO2 TSE0557
       SLP148 P0011 T00670039 401890039 $
SPECI KEEO 220632Z AUTO 9SM -RA FEW020 SCT028 OVC046 07/06 A3012 RMK AO2
       TSE0557 PRESFR P0010 T00720056 $
SPECI KEEO 220603Z AUTO 3SM +RA BR SCT020 OVC029 07/06 A3017 RMK AO2 LTG
       DSNT SE AND S TSE0557 P0005 T00720061 $

METAR K20V 220655Z AUTO 01006KT 10SM BKN041 BKN050 OVC075 06/01 RMK AO2
       LTG DSNT SW AND W
METAR K20V 220635Z AUTO 35008KT 10SM SCT044 BKN050 OVC065 07/01 RMK
       AO2
METAR K20V 220615Z AUTO 33011G18KT 10SM SCT043 BKN050 OVC090 08/02 RMK
       AO2

METAR K0CO 220650Z AUTO 29014KT 10SM CLR M02/M03 A3031 RMK AO2 LTG DSNT
       SW AND W
METAR K0CO 220630Z AUTO 28012G22KT 10SM CLR M01/M03 A3032 RMK AO2 LTG
       DSNT SW
METAR K0CO 220610Z AUTO 28015G25KT 10SM CLR M01/M03 A3031 RMK AO2

KGJT 220631Z 2207/2306 12010KT P6SM VCTS SCT060CB OVC100
      TEMPO 2207/2208 VRB20G30KT -TSRA
     FM220800 12005KT P6SM SCT100
     FM221900 VRB03KT P6SM SCT100
     FM222100 28007KT P6SM SCT100
METAR KGJT 220653Z AUTO 34008KT 10SM -RA BKN060 OVC085 11/07 A3008 RMK
       AO2 LTG DSNT ALQDS RAB47 PRESRR SLP138 P0000 T01060067
       402170106
METAR KGJT 220553Z AUTO 23004KT 10SM SCT080 OVC110 11/06 A3003 RMK AO2
       LTG DSNT NE AND S SLP128 60000 T01060061 10172 20106
       53019
METAR KGJT 220453Z AUTO 28005KT 10SM FEW065 BKN085 OVC100 13/08 A3001
       RMK AO2 LTG DSNT N AND NE SLP120 T01330083

KRIL 220604Z 2206/2306 20005KT P6SM VCTS BKN050CB BKN070
      TEMPO 2206/2207 VRB15G30KT -TSRA
     FM220900 VRB03KT P6SM BKN100
     FM222000 27008KT P6SM VCSH SCT060 BKN090
     FM230200 14005KT P6SM FEW100 SCT250
METAR KRIL 220653Z AUTO 16007KT 10SM FEW050 BKN075 OVC100 09/06 A3012
       RMK AO2 LTG DSNT SW AND W RAE41 TSB10E33 SLP163 P0007
       T00890061 401890056
SPECI KRIL 220639Z AUTO 00000KT 10SM -RA SCT050 BKN090 OVC110 09/05
       A3012 RMK AO2 LTG DSNT SW AND W TSB10E33 P0007 T00890050
SPECI KRIL 220616Z AUTO 32008G22KT 5SM TSRA OVC050 09/06 A3012 RMK AO2
       LTG DSNT NE AND E TSB10 P0006 T00890056

METAR K5SM 220658Z AUTO 30003KT 1/4SM TSSN OVC001 01/01 A3029 RMK AO2
       LTG DSNT SW AND W
METAR K5SM 220638Z AUTO 00000KT M1/4SM VCTS FG OVC001 02/02 A3030 RMK
       AO2 LTG DSNT NE AND W
METAR K5SM 220617Z AUTO 00000KT 10SM TS SCT005 BKN016 OVC050 03/02 A3028
       RMK AO2 LTG DSNT W THRU N

KEGE 220520Z 2206/2306 VRB03KT P6SM VCSH SCT060 BKN090
     FM220900 VRB03KT P6SM VCSH BKN090
     FM221900 27007KT P6SM VCSH SCT050 BKN090
     FM230200 10004KT P6SM FEW090 SCT150 AMD LTD TO CLD VIS AND
      WIND TIL 221300
METAR KEGE 220655Z AUTO 27011KT 10SM FEW040 OVC060 07/05 A3017 RMK
       AO1
METAR KEGE 220635Z AUTO 00000KT 10SM FEW060 BKN065 OVC095 07/04 A3012
       RMK AO1
METAR KEGE 220615Z AUTO 00000KT 10SM SCT060 SCT075 BKN095 07/04 A3012
       RMK AO1

KASE 220520Z 2206/2306 19004KT P6SM VCSH OVC070
     FM221400 VRB03KT P6SM BKN080
     FM221900 32008KT P6SM VCSH SCT050 BKN070
     FM230200 20005KT P6SM SCT090
METAR KASE 220653Z AUTO 22007KT 10SM BKN070 04/02 A3015 RMK AO2 LTG DSNT
       N SLP123 T00390022 401670028
METAR KASE 220553Z AUTO 24003KT 10SM SCT070 05/03 A3015 RMK AO2 SLP123
       60005 T00500028 10094 20039 50006
METAR KASE 220453Z AUTO 17003KT 10SM FEW033 BKN080 06/04 A3016 RMK AO2
       RAB21E47 SLP130 P0005 T00560039

METAR KCCU 220657Z AUTO 20008G19KT 160V250 10SM VCTS CLR 02/M02 A3031
       RMK AO2 LTG DSNT W
METAR KCCU 220637Z AUTO 24009KT 10SM SCT001 SCT032 SCT040 02/M03 A3031
       RMK AO2 LTG DSNT W AND NW
METAR KCCU 220617Z AUTO 22010G15KT 1/2SM FG BKN001 OVC014 01/M01 A3031
       RMK AO2 LTG DSNT NW

METAR KLXV 220653Z AUTO 04004KT 10SM CLR M01/M01 A3022 RMK AO2 SLP138
       T10061011 401111033
METAR KLXV 220553Z AUTO 05007KT 10SM FEW023 SCT034 01/00 A3023 RMK AO2
       RAB22E51 SLP135 P0000 60001 T00060000 10056 21006 51005
METAR KLXV 220453Z AUTO 00000KT 10SM FEW050 00/M01 A3022 RMK AO2 SLP144
       T00001006

Sunrise/Sunset for 10/22/2014
Rangely           - 07:33:19 MDT / 18:26:46 MDT
Grand Junction    - 07:31:08 MDT / 18:27:07 MDT
Steamboat Springs - 07:26:00 MDT / 18:18:27 MDT

Grand Junction (KGJX) 10/22/14 07:00 UTC
Radar VAD winds      Height      Dir/Spd(kt)
                  35000 FT MSL...248/043
                  31600 FT MSL...249/035
                  30000 FT MSL...245/031
                  28000 FT MSL...243/029
                  27500 FT MSL...245/029
                  26000 FT MSL...246/030
                  25000 FT MSL...245/031
                  24100 FT MSL...243/029
                  24000 FT MSL...248/031
                  22000 FT MSL...250/034
                  21300 FT MSL...245/032
                  20000 FT MSL...247/032
                  19100 FT MSL...243/030
                  19000 FT MSL...250/033
                  18000 FT MSL...251/031
                  17100 FT MSL...242/027
                  17000 FT MSL...249/029
                  16000 FT MSL...251/029
                  15700 FT MSL...243/027
                  15000 FT MSL...247/027
                  14400 FT MSL...244/027
                  14000 FT MSL...252/026
                  13500 FT MSL...245/026
                  13000 FT MSL...245/022
                  12500 FT MSL...244/023
                  12000 FT MSL...239/020
                  11800 FT MSL...245/019
                  11200 FT MSL...248/016
                  11000 FT MSL...226/021
                  10700 FT MSL...223/021
                  10400 FT MSL...223/020

Grand Junction Aviation Discussion
Issued at 0314 UTC Wednesday, October 22, 2014

.AVIATION...(FOR THE 00Z TAFS THROUGH 00Z WEDNESDAY EVENING)
ISSUED AT 855 PM MDT TUE OCT 21 2014
A COLD FRONT WILL CONTINUE PUSHING EAST ACROSS WESTERN COLORADO
THROUGH 09Z WITH A BAND OF SHOWERS AND EMBEDDED THUNDERSTORMS
RIDING SWEEPING IN WITH THE FRONT. THIS ACTIVITY WILL GENERALLY
BE CONFINED TO AREAS ALONG AND NORTH OF INTERSTATE 70 WITH SNOW
LEVELS DROPPING TO AROUND 10K. EXPECT AREAS OF MVFR CIGS AND VSBYS
NEAR THE SHOWERS...OTHERWISE VFR CONDITIONS EXPECTED TO PERSIST AT
TERMINAL SITES. SHOWERS DIMINISH FROM WEST TO EAST...WITH MOST
ACTIVITY ENDING AFTER 21Z WEDNESDAY.


* * * * * Southwest Colorado * * * * *

METAR KAJZ 220655Z AUTO 23008G19KT 10SM VCTS BKN065 OVC075 14/06 A3008
       RMK AO2 LTG DSNT N AND NW T01350060
METAR KAJZ 220635Z AUTO 08004KT 10SM TS BKN085 OVC110 11/06 A3005 RMK
       AO2 LTG DSNT W THRU N T01110060
METAR KAJZ 220615Z AUTO 09004KT 10SM SCT085 SCT110 12/06 A3005 RMK AO2
       LTG DSNT W T01150060

KMTJ 220520Z 2206/2306 15006KT P6SM SCT070 BKN100
     FM221500 VRB03KT P6SM SCT100
     FM221900 28007KT P6SM SCT100
     FM230200 14005KT P6SM FEW140 SCT250
METAR KMTJ 220653Z AUTO 12011KT 10SM CLR 11/04 A3008 RMK AO2 LTG DSNT
       W-N SLP130 T01110044 401890083
METAR KMTJ 220553Z AUTO 13008KT 10SM CLR 09/05 A3008 RMK AO2 SLP134
       T00890050 10161 20083 51007
METAR KMTJ 220453Z AUTO 15007KT 10SM CLR 09/06 A3007 RMK AO2 SLP132
       T00890056

METAR KGUC 220655Z AUTO 00000KT 10SM BKN055 03/01 A3021 RMK AO1
METAR KGUC 220635Z AUTO 03003KT 10SM FEW055 04/01 A3020 RMK AO1
METAR KGUC 220615Z AUTO 35003KT 10SM CLR 04/01 A3020 RMK AO1

METAR K7BM 220654Z AUTO 00000KT 10SM CLR 07/01 A3023 RMK AO2 LTG DSNT N
       AND W
METAR K7BM 220633Z AUTO 00000KT 10SM CLR 06/02 A3023 RMK AO2 LTG DSNT
       W
METAR K7BM 220614Z AUTO 00000KT 10SM SCT046 SCT055 06/02 A3023 RMK
       AO2

METAR KAEJ 220655Z AUTO 31006KT 10SM CLR 04/03 A3017 RMK AO2 LTG DSNT W
       T00390030
METAR KAEJ 220635Z AUTO 29004KT 10SM CLR 04/03 A3016 RMK AO2
       T00420027
METAR KAEJ 220615Z AUTO 00000KT 10SM SCT060 05/03 A3016 RMK AO2
       T00460031

METAR KANK 220655Z AUTO 28004KT 10SM CLR 07/05 A3022 RMK AO1
       T00730054
METAR KANK 220635Z AUTO 33003KT 10SM CLR 08/06 A3021 RMK AO1
       T00830060
METAR KANK 220615Z AUTO 33004KT 10SM CLR 08/07 A3022 RMK AO1
       T00800065

METAR KMYP 220652Z AUTO M1/4SM FG OVC001 00/00 A3041 RMK AO2 LTG DSNT W
       AND NW
METAR KMYP 220631Z AUTO M1/4SM FG OVC001 00/00 A3041 RMK AO2
METAR KMYP 220557Z AUTO M1/4SM FG OVC001 00/00 A3042 RMK AO2 LTG DSNT
       NW

METAR KAIB 220655Z AUTO 05005KT 10SM VCTS SCT080 08/03 A3012 RMK AO2 LTG
       DSNT N
METAR KAIB 220635Z AUTO 10007KT 10SM VCTS CLR 10/04 A3011 RMK AO2
METAR KAIB 220615Z AUTO 10007KT 10SM CLR 10/04 A3011 RMK AO2

KTEX 220520Z 2206/2306 VRB03KT P6SM VCSH OVC080
     FM221400 VRB03KT P6SM BKN080
     FM222100 27008KT P6SM VCSH BKN060
     FM230200 14005KT P6SM SCT090
METAR KTEX 220635Z AUTO 11005KT 10SM CLR 06/02 A3025 RMK AO2
       T00570016
METAR KTEX 220535Z AUTO 00000KT 10SM SCT055 SCT070 07/02 A3025 RMK AO2
       LTG DSNT N T00670018
METAR KTEX 220515Z AUTO 00000KT 10SM SCT050 SCT070 07/02 A3025 RMK AO2
       T00740020

METAR K04V 220652Z AUTO 33011KT 10SM OVC110 07/03 A3017 RMK AO2 LTG DSNT
       NW
METAR K04V 220633Z AUTO 32007G14KT 10SM SCT065 BKN120 07/03 A3017 RMK
       AO2
METAR K04V 220614Z AUTO 36006KT 10SM SCT065 SCT110 07/03 A3017 RMK
       AO2

METAR KCEZ 220653Z AUTO 06003KT 10SM BKN085 08/06 A3010 RMK AO2 SLP143
       T00830056 402000083
METAR KCEZ 220553Z AUTO 09004KT 10SM SCT075 BKN090 09/06 A3010 RMK AO2
       SLP142 T00940056 10178 20089 51011
METAR KCEZ 220453Z AUTO 04003KT 10SM FEW080 09/06 A3009 RMK AO2 SLP139
       T00890056

KDRO 220520Z 2206/2306 34005KT P6SM SCT070
     FM221400 VRB03KT P6SM SCT100
     FM221900 28008KT P6SM SCT100
     FM230200 34005KT P6SM FEW250
METAR KDRO 220653Z AUTO 00000KT 10SM BKN070 07/06 A3015 RMK AO2 SLP170
       T00670061 401670067 PWINO
METAR KDRO 220553Z AUTO 03003KT 10SM BKN090 07/05 A3015 RMK AO2 SLP168
       T00720050 10133 20067 51006 PWINO
METAR KDRO 220453Z AUTO 35006KT 10SM FEW070 07/06 A3014 RMK AO2 SLP171
       T00720056 PWINO

METAR KPSO 220655Z AUTO 00000KT 10SM SCT070 BKN080 07/06 A3021 RMK AO2
       LTG DSNT NW T00650064
METAR KPSO 220635Z AUTO 00000KT 7SM SCT044 SCT050 BKN080 06/06 A3021 RMK
       AO2 LTG DSNT NW T00630061
METAR KPSO 220615Z AUTO 00000KT 10SM SCT042 SCT050 BKN065 07/07 A3020
       RMK AO2 T00710067

METAR KCPW 220657Z AUTO 23011G20KT M1/4SM -VCTSSN OVC002 00/00 RMK AO2
       LTG DSNT NW
METAR KCPW 220637Z AUTO 22013G20KT M1/4SM -SN OVC002 00/00 RMK AO2 LTG
       DSNT NW
METAR KCPW 220616Z AUTO 24017G21KT 1/4SM FG OVC002 00/00 RMK AO2

KALS 220531Z 2206/2306 VRB06KT P6SM OVC090
     FM220900 VRB04KT P6SM SCT090 BKN200
     FM221200 VRB04KT P6SM SCT010 SCT090
     FM222000 22007KT P6SM SCT090 BKN120
     FM230300 VRB05KT P6SM SCT090 SCT150
METAR KALS 220652Z AUTO 18006KT 10SM FEW080 BKN095 08/03 A3015 RMK AO2
       SLP143 T00830033 401671017
METAR KALS 220552Z AUTO 17007KT 10SM BKN075 OVC085 09/04 A3015 RMK AO2
       SLP142 T00940039 10133 20089 51009
METAR KALS 220452Z AUTO 19007KT 10SM OVC080 09/04 A3014 RMK AO2 SLP147
       T00890039

Sunrise/Sunset for 10/22/2014
Vail    - 07:23:04 MDT / 18:17:40 MDT
Durango - 07:26:12 MDT / 18:26:34 MDT
Alamosa - 07:18:26 MDT / 18:18:22 MDT

Grand Junction (KGJX) 10/22/14 07:00 UTC
Radar VAD winds      Height      Dir/Spd(kt)
                  35000 FT MSL...248/043
                  31600 FT MSL...249/035
                  30000 FT MSL...245/031
                  28000 FT MSL...243/029
                  27500 FT MSL...245/029
                  26000 FT MSL...246/030
                  25000 FT MSL...245/031
                  24100 FT MSL...243/029
                  24000 FT MSL...248/031
                  22000 FT MSL...250/034
                  21300 FT MSL...245/032
                  20000 FT MSL...247/032
                  19100 FT MSL...243/030
                  19000 FT MSL...250/033
                  18000 FT MSL...251/031
                  17100 FT MSL...242/027
                  17000 FT MSL...249/029
                  16000 FT MSL...251/029
                  15700 FT MSL...243/027
                  15000 FT MSL...247/027
                  14400 FT MSL...244/027
                  14000 FT MSL...252/026
                  13500 FT MSL...245/026
                  13000 FT MSL...245/022
                  12500 FT MSL...244/023
                  12000 FT MSL...239/020
                  11800 FT MSL...245/019
                  11200 FT MSL...248/016
                  11000 FT MSL...226/021
                  10700 FT MSL...223/021
                  10400 FT MSL...223/020

Grand Junction Aviation Discussion
Issued at 0314 UTC Wednesday, October 22, 2014

.AVIATION...(FOR THE 00Z TAFS THROUGH 00Z WEDNESDAY EVENING)
ISSUED AT 855 PM MDT TUE OCT 21 2014
A COLD FRONT WILL CONTINUE PUSHING EAST ACROSS WESTERN COLORADO
THROUGH 09Z WITH A BAND OF SHOWERS AND EMBEDDED THUNDERSTORMS
RIDING SWEEPING IN WITH THE FRONT. THIS ACTIVITY WILL GENERALLY
BE CONFINED TO AREAS ALONG AND NORTH OF INTERSTATE 70 WITH SNOW
LEVELS DROPPING TO AROUND 10K. EXPECT AREAS OF MVFR CIGS AND VSBYS
NEAR THE SHOWERS...OTHERWISE VFR CONDITIONS EXPECTED TO PERSIST AT
TERMINAL SITES. SHOWERS DIMINISH FROM WEST TO EAST...WITH MOST
ACTIVITY ENDING AFTER 21Z WEDNESDAY.


* * * * * Arizona * * * * *

KPGA 220534Z 2206/2306 VRB04KT P6SM FEW250
      TEMPO 2206/2208 BKN100
METAR KPGA 220653Z AUTO 00000KT 10SM CLR 17/02 A3000 RMK AO2 SLP107
       T01720022 402560133
METAR KPGA 220553Z AUTO 22004KT 10SM CLR 20/02 A2998 RMK AO2 SLP098
       T02000022 10239 20183 51014
METAR KPGA 220453Z AUTO 24004KT 10SM OVC100 20/02 A2997 RMK AO2 SLP099
       T02000022

METAR KRQE 220553Z AUTO 02003KT 10SM CLR 07/04 A3015 RMK AO2 SLP134
       60000 T00670039 10167 20050 53006 TSNO $
METAR KRQE 220453Z AUTO 00000KT 10SM CLR 07/04 A3014 RMK AO2 SLP136
       T00670044 TSNO $

Flagstaff (KFSX) 10/22/14 06:49 UTC
Radar VAD winds      Height      Dir/Spd(kt)
                  14000 FT MSL...340/020
                  13000 FT MSL...000/017
                  11000 FT MSL...271/009
                  10200 FT MSL...314/012
                  10000 FT MSL...307/013
                   9000 FT MSL...315/013
                   8500 FT MSL...313/014
                   8400 FT MSL...261/013
                   8000 FT MSL...282/013
                   7800 FT MSL...265/013

Flagstaff Aviation Discussion
Issued at 0357 UTC Wednesday, October 22, 2014

.AVIATION...
FOR THE 06Z PACKAGE...LIGHT WINDS AND VFR CONDITIONS UNDER MOSTLY
CLEAR SKIES FOR THE 24HR TAF PERIOD. AVIATION DISCUSSION NOT
UPDATED FOR AMENDMENTS.


* * * * * Utah * * * * *

KSLC 220520Z 2206/2312 35010KT P6SM SCT150
     FM220900 15004KT P6SM SKC
     FM221800 34005KT P6SM SCT120
     FM230300 16006KT P6SM FEW120 SCT150
METAR KSLC 220653Z 26004KT 10SM FEW170 07/02 A3009 RMK AO2 SLP168
       T00670022 402170050
METAR KSLC 220553Z 27004KT 10SM FEW095 FEW170 08/02 A3009 RMK AO2 SLP164
       T00780022 10150 20067 53010
METAR KSLC 220453Z 33007KT 10SM FEW095 SCT170 09/02 A3007 RMK AO2 SLP156
       T00940022

KVEL 220520Z 2206/2306 03006KT P6SM VCSH SCT050 BKN100
     FM220800 VRB04KT P6SM SCT100
     FM221400 VRB03KT P6SM SCT100
     FM230200 29006KT P6SM SCT250
METAR KVEL 220653Z AUTO 36007KT 10SM BKN100 OVC110 09/03 A3006 RMK AO2
       SLP143 T00940033 402000056
METAR KVEL 220553Z AUTO 36008KT 10SM FEW050 BKN090 OVC110 10/04 A3006
       RMK AO2 RAB07E22 SLP142 P0001 60002 T01000044 10150 20100
       51015
METAR KVEL 220453Z AUTO 05006KT 10SM SCT050 BKN075 OVC100 11/06 A3004
       RMK AO2 SLP136 T01110061

METAR KPUC 220653Z AUTO 34006KT 10SM CLR 11/03 A3005 RMK AO2 SLP134
       T01110028 401940072 TSNO
METAR KPUC 220553Z AUTO 31005KT 10SM CLR 10/04 A3005 RMK AO2 SLP138
       T01000039 10161 20100 51014 TSNO
METAR KPUC 220453Z AUTO 34005KT 10SM CLR 10/04 A3003 RMK AO2 SLP138
       T01000044 TSNO

KCNY 220520Z 2206/2306 VRB03KT P6SM VCSH BKN100
     FM220800 VRB03KT P6SM SCT100
     FM221900 14008KT P6SM SCT100
     FM230200 VRB04KT P6SM SCT250
METAR KCNY 220653Z AUTO 12005KT 10SM FEW095 15/06 A2997 RMK AO2 SLP106
       T01500056 402440133
METAR KCNY 220553Z AUTO 00000KT 10SM BKN090 16/03 A2996 RMK AO2 SLP101
       T01560033 10222 20150 51019
METAR KCNY 220453Z AUTO 02004KT 10SM BKN090 BKN110 17/03 A2994 RMK AO2
       SLP096 T01720033


Salt Lake City (KMTX) 10/22/14 07:01 UTC
Radar VAD winds      Height      Dir/Spd(kt)
                  11000 FT MSL...298/025
                  10900 FT MSL...300/027
                  10000 FT MSL...311/024
                  10000 FT MSL...306/029
                   9100 FT MSL...318/025
                   9000 FT MSL...323/027
                   8300 FT MSL...326/023
                   8000 FT MSL...318/020
                   7600 FT MSL...332/021
                   6900 FT MSL...335/012

Salt Lake City Aviation Discussion
Issued at 0300 UTC Wednesday, October 22, 2014

.AVIATION...NORTH WINDS WILL CONTINUE AT KSLC THROUGH THE EVENING
HOURS...BEFORE SWITCHING TO LIGHT SOUTHERLY AFTER 06Z. THERE IS A
30 PERCENT CHANCE THIS WIND SHIFT DOES NOT OCCUR AT ALL...AND
WINDS REMAIN LIGHT NORTHERLY OR LIGHT AND VARIABLE. VFR CONDITIONS
WILL PREVAIL THROUGH THE PERIOD. 


* * * * * Wyoming * * * * *

KEVW 220520Z 2206/2306 27005KT P6SM FEW060 SCT120
     FM221800 24010KT P6SM SCT120
     FM230300 19006KT P6SM SKC=
METAR KEVW 220653Z AUTO 00000KT 10SM CLR 03/M03 A3014 RMK AO2 SLP157
       T00281033 401720028 TSNO
METAR KEVW 220553Z AUTO 01004KT 10SM CLR 03/M04 A3014 RMK AO2 SLP157
       T00331039 10089 20028 53008 TSNO
METAR KEVW 220453Z AUTO 28003KT 10SM CLR 04/M06 A3012 RMK AO2 SLP143
       T00441056 TSNO

KRKS 220521Z 2206/2306 24012KT P6SM VCSH SCT050 BKN100
     FM220900 23007KT P6SM SCT100 BKN250
     FM221200 23006KT P6SM SKC
     FM221800 25010G20KT P6SM SCT250
     FM230000 22007KT P6SM SCT100 BKN250
METAR KRKS 220654Z AUTO 25011KT 10SM CLR 03/M01 A3012 RMK AO2 SLP156
       T00281006 401830028
METAR KRKS 220554Z AUTO 23016KT 10SM CLR 05/M01 A3010 RMK AO2 RAB0455E18
       SLP143 P0000 60001 T00501006 10106 20044 50008
SPECI KRKS 220515Z AUTO 23013KT 10SM -RA BKN036 BKN070 OVC100 04/01
       A3010 RMK AO2 RAB0455 P0000 T00440006

KRWL 220520Z 2206/2306 26012G23KT P6SM VCSH SCT040 BKN070
      TEMPO 2206/2210 BKN040
     FM221000 26011KT P6SM BKN100
     FM221500 25018G30KT P6SM SCT100
     FM230200 24007KT P6SM SCT100
METAR KRWL 220653Z AUTO 25012KT 10SM OVC048 07/01 A3009 RMK AO2 SLP122
       T00720011 401890033
METAR KRWL 220553Z AUTO 24009KT 10SM OVC046 07/04 A3009 RMK AO2 SLP124
       60004 T00720044 10139 20056 51007
METAR KRWL 220453Z AUTO 23009KT 10SM BKN047 08/04 A3008 RMK AO2 RAB16E30
       SLP120 P0000 T00780044

KLAR 220520Z 2206/2306 26010G20KT P6SM VCTS SCT060 BKN080CB
     FM221000 26010KT P6SM BKN100
     FM221500 25012G24KT P6SM SCT100
     FM221900 28012G23KT P6SM BKN100
     FM230200 20008KT P6SM SCT100
METAR KLAR 220653Z AUTO 20004KT 10SM BKN060 OVC080 06/03 A3007 RMK AO2
       SLP101 T00610033 401830017
METAR KLAR 220553Z AUTO 20004KT 10SM BKN075 06/03 A3008 RMK AO2 RAE04
       SLP108 P0000 60001 T00560033 10117 20056 51007
METAR KLAR 220453Z AUTO 35010KT 10SM -RA BKN041 BKN065 OVC110 07/04
       A3008 RMK AO2 WSHFT 0349 RAB0354 SLP110 P0001 T00670044

KCYS 220520Z 2206/2306 31010G20KT P6SM VCSH SCT060 BKN080
      TEMPO 2206/2210 5SM -SHRA BKN045
     FM221000 30010KT P6SM BKN100
     FM221500 28012G23KT P6SM SCT120
     FM221900 23012G24KT P6SM BKN120
     FM230200 23008KT P6SM SCT120
METAR KCYS 220653Z AUTO 05003KT 8SM -RA FEW019 OVC055 10/05 A3004 RMK
       AO2 SLP103 P0002 T01000050 402280044
METAR KCYS 220553Z AUTO 36005KT 7SM RA OVC055 11/04 A3005 RMK AO2 RAB02
       SLP105 P0001 60001 T01110044 10161 20106 53017
METAR KCYS 220453Z AUTO 19004KT 10SM FEW060 OVC080 12/06 A3001 RMK AO2
       RAE17 SLP090 P0000 T01170056

Riverton (KRIW) 10/22/14 06:58 UTC
Radar VAD winds      Height      Dir/Spd(kt)
                  11000 FT MSL...325/018
                  10000 FT MSL...334/033
                   9000 FT MSL...319/034
                   8000 FT MSL...331/034
                   7000 FT MSL...304/022
                   6700 FT MSL...347/020
                   6200 FT MSL...320/019
                   6000 FT MSL...314/011

Cheyenne (KCYS) 10/22/14 06:55 UTC
Radar VAD winds      Height      Dir/Spd(kt)
                  32000 FT MSL...198/033
                  31100 FT MSL...203/037
                  31000 FT MSL...203/040
                  30000 FT MSL...203/034
                  29000 FT MSL...205/038
                  28000 FT MSL...205/036
                  27000 FT MSL...201/033
                  26000 FT MSL...192/029
                  25000 FT MSL...193/031
                  24000 FT MSL...192/029
                  23200 FT MSL...190/029
                  23000 FT MSL...195/030
                  22000 FT MSL...196/032
                  21000 FT MSL...203/034
                  20000 FT MSL...215/026
                  19000 FT MSL...219/029
                  18000 FT MSL...222/027
                  17000 FT MSL...222/026
                  16600 FT MSL...223/025
                  16000 FT MSL...238/022
                  15000 FT MSL...258/016
                  14000 FT MSL...255/017
                  13700 FT MSL...261/017
                  13000 FT MSL...254/020
                  12100 FT MSL...252/026
                  12000 FT MSL...249/026
                  11000 FT MSL...264/032
                  10500 FT MSL...260/029
                  10000 FT MSL...272/024
                   9000 FT MSL...297/020
                   8800 FT MSL...277/025
                   8000 FT MSL...305/022
                   7200 FT MSL...288/028
                   7100 FT MSL...318/007
                   7000 FT MSL...315/017

Riverton Aviation Discussion
Issued at 0500 UTC Wednesday, October 22, 2014

.AVIATION.../06Z ISSUANCE/
AN AREA OF ISOLATED -SHRA ONGOING...ALONG AND SE OF A KRKS-KCPR 
LINE...WILL GRADUALLY SHIFT EAST OF THE AREA BY 09Z. EXCEPT FOR VERY 
BRIEF MVFR CONDITIONS IN -SHRA ACTIVITY...VFR CONDITIONS WILL 
PREVAIL IN THIS AREA. ACROSS FAR NORTHWEST WYOMING LOW CLOUDS AND 
SOME SNOW SHOWER ACTIVITY WILL BE POSSIBLE FOR THE REST OF THE 
NIGHT. THE SNOW SHOWER ACTIVITY IS EXPECTED TO DECREASE TO ONLY SOME 
FLURRIES BY 12Z. BETWEEN 12Z AND 18Z THE MAIN CONCERN WILL BE LOW 
CLOUDS /020-050 KFT AGL/ AND POSSIBLY SOME PATCHY FOG ACROSS 
NORTHWEST WYOMING /NW OF A KAFO-KPNA-30W KCOD LINE/. THIS WOULD 
PRIMARILY IMPACT THE KJAC TERMINAL...WITH CEILINGS AT KJAC PROBABLY 
HIGH MVFR TO LOW VFR. FOG CHANCES AT KJAC WILL BE SLIM DUE TO THE 
AFOREMENTIONED STRATCU DECK. THIS FOG/LOW CLOUDS ACROSS THE 
NORTHWEST ARE EXPECTED TO ERODE BY AROUND 18Z. OTHERWISE...VFR 
CONDITIONS WILL OCCUR FOR THE REST OF TONIGHT WITH SKC CONDITIONS 
AND BREEZY WINDS BECOMING LIGHTER AS THE NIGHT PROGRESSES WITH 
MAINLY LIGHT WIND DURING THE DAY WEDNESDAY.  AFTER 00Z...EXPECT 
INCREASING MID/HIGH LEVEL CLOUDINESS AND STRENGTHENING MOUNTAIN TOP 
WINDS WITH POSSIBLY SOME LLWS ON THE LEE SIDE OF MOUNTAIN RANGES 
ALONG THE CONTINENTAL DIVIDE DEVELOPING AFTER 06Z THURSDAY. 

Cheyenne Aviation Discussion
Issued at 0445 UTC Wednesday, October 22, 2014

.AVIATION...(FOR THE 06Z TAFS THROUGH 06Z WEDNESDAY EVENING)
ISSUED AT 1042 PM MDT TUE OCT 21 2014
ISOLATED TO SCATTERED SHOWERS...ALONG WITH ISOLATED THUNDERSTORMS...
THE REST OF THE NIGHT PRODUCING LOCALIZED MVFR...THOUGH VFR
PREVAILS. PACIFIC ORIGIN COLD FRONT MOVES ACROSS THE TERMINALS
WITH WINDS BECOMING WEST AND NORTHWEST OVERNIGHT.
DECREASING CLOUDINESS AFTER DAYBREAK WEDNESDAY WITH ALL LOCATIONS
REPORTING VFR ALONG WITH SCATTERED TO BROKEN CLOUDS AT OR ABOVE
8000 FEET AGL.


* * * * * Nebraska * * * * *

METAR KIBM 220655Z AUTO 31016G21KT 10SM BKN110 13/08 A2995 RMK AO2
       T01280081 402450039
METAR KIBM 220635Z AUTO 30018G25KT 10SM CLR 13/08 A2994 RMK AO2
       T01320076
METAR KIBM 220615Z AUTO 30021G27KT 10SM SCT090 BKN120 13/08 A2994 RMK
       AO2 T01310080

KSNY 220520Z 2206/2306 18011KT P6SM VCSH BKN080
     FM220800 25010KT P6SM VCSH BKN080
     FM221000 32012KT P6SM BKN080
     FM221500 34015G25KT P6SM BKN080
     FM221900 36010KT P6SM SCT080
     FM230200 15006KT P6SM SCT080
METAR KSNY 220653Z AUTO 30014KT 10SM CLR 13/05 A2994 RMK AO2 SLP100
       T01330050 402560056
METAR KSNY 220553Z AUTO 23006KT 10SM BKN100 13/06 A2992 RMK AO2 SLP095
       T01330056 10194 20117 51005
METAR KSNY 220453Z AUTO 23004KT 10SM CLR 12/05 A2991 RMK AO2 SLP097
       T01220050

METAR KOGA 220655Z AUTO 19005KT 10SM CLR 16/10 A2989 RMK AO2 T01620095
       402760041
METAR KOGA 220635Z AUTO 18007KT 10SM CLR 16/10 A2989 RMK AO2
       T01620095
METAR KOGA 220615Z AUTO 17009KT 10SM CLR 16/10 A2988 RMK AO2
       T01620097

METAR KIML 220653Z AUTO 18009KT 10SM CLR 16/08 A2991 RMK AO2 SLP102
       T01610078 402610100
METAR KIML 220553Z AUTO 15008KT 10SM CLR 16/08 A2991 RMK AO2 SLP105
       T01560078 10228 20156 58001
METAR KIML 220453Z AUTO 17010KT 10SM CLR 17/08 A2991 RMK AO2 SLP108
       T01720078

KMCK 220520Z 2206/2306 17010KT P6SM SCT250
     FM220800 17007KT 4SM BR SCT250
     FM221500 24010KT P6SM -SHRA BKN060 BKN120
     FM221800 32010KT P6SM -SHRA BKN060 BKN120
     FM222100 32010KT P6SM BKN200
     FM230000 07005KT P6SM BKN250
METAR KMCK 220653Z AUTO 18013G20KT 10SM CLR 17/11 A2993 RMK AO2 SLP115
       T01720106
METAR KMCK 220553Z AUTO 18011G18KT 10SM CLR 17/11 A2993 RMK AO2 SLP117
       T01720106 10228 20172 402720050 50002
METAR KMCK 220453Z AUTO 18013KT 10SM CLR 18/11 A2994 RMK AO2 SLP120
       T01830106

North Platte (KLNX) 10/22/14 06:52 UTC
Radar VAD winds      Height      Dir/Spd(kt)
                  20000 FT MSL...191/028
                  19000 FT MSL...182/029
                  18000 FT MSL...200/041
                  17000 FT MSL...186/027
                   6000 FT MSL...209/042
                   5000 FT MSL...208/050
                   4100 FT MSL...200/042
                   4000 FT MSL...199/042
                   4000 FT MSL...198/041
                   3400 FT MSL...188/025

North Platte Aviation Discussion
Issued at 0512 UTC Wednesday, October 22, 2014

.AVIATION...(FOR THE 06Z TAFS THROUGH 06Z WEDNESDAY NIGHT)
ISSUED AT 1211 AM CDT WED OCT 22 2014
CLOUDS WILL INCREASE OVERNIGHT IN WESTERN NEBRASKA AS A COLD
FRONT MOVES OUT OF WYOMING INTO THE PANHANDLE OF NEBRASKA AND
MOVES EAST INTO WESTERN NEBRASKA. FROPA EXPECTED AT KVTN KLBF
AROUND 22/15Z. HAVE REMOVED MENTION OF TRW AT KVTN WITH EVENT
LOOKING MORE LIKE SHOWERS. SOME MVFR CEILINGS EXPECTED WITH
SHOWERS AND FROPA AT KVTN. SKIES WILL CLEAR WEDNESDAY AFTERNOON AS
SYSTEM MOVES EAST.


* * * * * Kansas * * * * *

KGLD 220520Z 2206/2306 18013KT P6SM SCT250
     FM220800 20010KT 4SM BR SCT100 BKN200
     FM221300 25010KT P6SM -SHRA SCT060 BKN120
     FM221800 36010KT P6SM SCT200
     FM230000 09005KT P6SM SCT250
METAR KGLD 220653Z AUTO 16011KT 10SM CLR 12/08 A2996 RMK AO2 SLP116
       T01170083 402670056
METAR KGLD 220553Z AUTO 17010KT 10SM CLR 12/08 A2996 RMK AO2 SLP119
       T01220083 10217 20122 50001
METAR KGLD 220453Z AUTO 17010KT 10SM CLR 14/08 A2996 RMK AO2 SLP122
       T01390083

KGCK 220520Z 2206/2306 18013KT P6SM FEW080
      TEMPO 2211/2213 6SM BR
     FM221800 19015G25KT P6SM BKN050
     FM222200 19015G25KT P6SM VCTS BKN030CB
METAR KGCK 220654Z AUTO 18013KT 10SM CLR 15/10 A3001 RMK AO2 SLP135
       T01500100
METAR KGCK 220554Z AUTO 18015KT 10SM CLR 16/10 A3000 RMK AO2 SLP135
       T01560100 10211 20156 402670072 50000
METAR KGCK 220454Z AUTO 18013KT 10SM CLR 16/11 A3000 RMK AO2 SLP142
       T01610106

METAR KLBL 220655Z AUTO 16009KT 10SM CLR 14/08 A3004 RMK AO1
METAR KLBL 220635Z AUTO 19008KT 10SM CLR 15/08 A3005 RMK AO1
METAR KLBL 220615Z AUTO 17011KT 10SM CLR 15/08 A3004 RMK AO1

METAR KEHA 220648Z AUTO 19011KT 14/07 RMK AO1 PK WND 16 000
       T01390073
METAR KEHA 220628Z AUTO 19010KT 13/07 RMK AO1 PK WND 16 000
       T01330073
METAR KEHA 220608Z AUTO 18010KT 13/07 RMK AO1 PK WND 14 000
       T01330067

Goodland (KGLD) 10/22/14 06:52 UTC
Radar VAD winds      Height      Dir/Spd(kt)
                  22000 FT MSL...174/029
                   7000 FT MSL...205/027
                   6000 FT MSL...209/044
                   5000 FT MSL...206/043
                   4700 FT MSL...200/039
                   4600 FT MSL...200/041
                   4000 FT MSL...183/028
                   4000 FT MSL...181/026

Dodge City (KDDC) 10/22/14 06:52 UTC
Radar VAD winds      Height      Dir/Spd(kt)
                   8000 FT MSL...211/014
                   7100 FT MSL...211/025
                   7000 FT MSL...217/029
                   6000 FT MSL...213/034
                   5400 FT MSL...215/038
                   5000 FT MSL...207/040
                   4000 FT MSL...201/045
                   3700 FT MSL...200/039
                   3600 FT MSL...198/046
                   3000 FT MSL...193/031
                   3000 FT MSL...193/031

Goodland Aviation Discussion
Issued at 0501 UTC Wednesday, October 22, 2014

.AVIATION...(FOR TAFS 06Z WEDNESDAY THROUGH 06Z THURSDAY) 
ISSUED AT 1055 PM MDT TUE OCT 21 2014
VFR CONDITIONS CURRENTLY AT BOTH TAF SITES WILL CONTINUE THROUGH 
AROUND 08Z WHEN MVFR FOG IS POSSIBLE...CONTINUING UNTIL 13Z-14Z.
 
UPPER TROUGH NOW OVER COLORADO WILL WORK EAST TONIGHT AND WEDNESDAY. 
CURRENT SHOWERS AND SCATTERED THUNDERSTORMS ACCOMPANYING TROUGH OVER 
CO-WY WILL MOVE CLOSER TO TERMINALS AFTER 12Z AT KGLD AND 15Z AT 
KMCK. CEILINGS VCNTY PRECIP EXPECTED TO REMAIN VFR.
 
A WEAK COLD FRONT WILL ACCOMPANY THE UPPER TROUGH WEDNESDAY WHICH 
WILL SHIFT WINDS TO NW-N BY 18Z WED...GRADUALLY VEERING TO NE-E BY 
00Z THU. 

Dodge City Aviation Discussion
Issued at 0642 UTC Wednesday, October 22, 2014

.AVIATION...(FOR THE 06Z TAFS THROUGH 06Z WEDNESDAY NIGHT)
ISSUED AT 1211 AM CDT WED OCT 22 2014
THE FLIGHT CONDITIONS TODAY WILL BE VFR OVERALL. THERE IS A
SLIGHT CHANCE FOR SOME LIGHT FOG TOWARD SUNRISE, AND THEN A CHANCE
FOR THUNDERSTORMS THIS AFTERNOON. WINDS WILL BE SOUTH AROUND
13-15KTS THIS MORNING, AND SOUTHWEST AT 15G25KT LATER TODAY.
CONVECTION WAS INTRODUCED AFTER 22Z AT GCK, 23Z AT DDC AND 01Z AT
HYS. THESE STORMS DO NOT LOOK TOO STRONG AND SHOULD ONLY REDUCE
CIGS TO BKN030-040.


* * * * * Texas/Oklahoma * * * * *

KGUY 220520Z 2206/2306 19008KT P6SM BKN100
     FM221000 21015KT P6SM SCT020 OVC080
     FM221700 20010KT P6SM VCSH OVC040=
METAR KGUY 220653Z AUTO 20007KT 10SM CLR 14/09 A3003 RMK AO2 SLP132
       T01390089
METAR KGUY 220553Z AUTO 18011KT 10SM CLR 14/08 A3002 RMK AO2 SLP129
       T01440083 10228 20144 402720083 50002
METAR KGUY 220453Z AUTO 19011KT 10SM CLR 16/08 A3003 RMK AO2 SLP130
       T01560083

KDHT 220520Z 2206/2306 20008KT P6SM OVC100
     FM221000 20005KT P6SM OVC015
     FM221700 21012KT P6SM VCSH SCT020 OVC050
METAR KDHT 220653Z AUTO 21007KT 10SM FEW060 13/12 A3007 RMK AO2 SLP140
       T01330117
METAR KDHT 220553Z AUTO 21011KT 10SM FEW046 BKN055 OVC070 16/12 A3007
       RMK AO2 SLP137 T01560117 10206 20139 402500072 50000
METAR KDHT 220453Z AUTO 21007KT 10SM CLR 15/11 A3008 RMK AO2 SLP141
       T01500111

Amarillo (KAMA) 10/22/14 06:49 UTC
Radar VAD winds      Height      Dir/Spd(kt)
                  22000 FT MSL...218/025
                  20000 FT MSL...215/024
                  19000 FT MSL...215/026
                  18000 FT MSL...216/026
                  17000 FT MSL...209/027
                  16000 FT MSL...207/024
                  15000 FT MSL...193/019
                  14000 FT MSL...221/026
                  13000 FT MSL...221/024
                  12000 FT MSL...204/019
                  11600 FT MSL...231/011
                  11000 FT MSL...219/017
                  10000 FT MSL...213/019
                   9900 FT MSL...218/019
                   9000 FT MSL...206/021
                   8200 FT MSL...203/024
                   8000 FT MSL...203/024
                   7000 FT MSL...200/027
                   6500 FT MSL...203/027
                   6000 FT MSL...204/029
                   5000 FT MSL...203/029
                   4700 FT MSL...207/027
                   4600 FT MSL...204/028
                   4000 FT MSL...206/022
                   4000 FT MSL...198/020

Amarillo Aviation Discussion
Issued at 0451 UTC Wednesday, October 22, 2014

.AVIATION...
VERY LITTLE THREAT FOR THUNDERSTORMS TO IMPACT THE TERMINALS
OVERNIGHT.  LOW-LEVEL MOISTURE AXIS SEEN IN SURFACE ISODROSOTHERMS
CURRENTLY OVER EASTERN NEW MEXICO PLACES KDHT IN THREAT FOR STRATUS
BEFORE SUNRISE.  HAVE CONTINUED FORECAST FOR MVFR CEILINGS AT KDHT
BETWEEN 10Z AND 17Z WEDNESDAY.  OTHER TERMINALS AT LESSER RISK FOR
STRATUS.  SHORTWAVE TROF WILL TRAVERSE MUCH OF FORECAST AREA BETWEEN
17Z WEDNESDAY AND 01Z THURSDAY...WITH POTENTIAL FOR SHOWERS AND
THUNDERSTORMS AT THE TERMINALS MAINLY DURING THIS TIME.  WILL NOT ADD
THUNDER AT THIS TIME...BUT WILL WAIT UNTIL GREATER CERTAINTY OF
TIMING AND LOCATION OF SAME CAN BE ATTAINED. 
COCKRELL


* * * * * New Mexico * * * * *

KFMN 220533Z 2206/2306 08006KT P6SM BKN100
     FM221400 VRB06KT P6SM SCT100
     FM221900 25010KT P6SM FEW070 SCT140
METAR KFMN 220653Z AUTO 08006KT 10SM CLR 11/06 A3009 RMK AO2 SLP152
       T01060056 402110089
METAR KFMN 220553Z AUTO 06005KT 10SM BKN080 BKN095 11/06 A3008 RMK AO2
       SLP151 T01060056 10183 20106 51010
METAR KFMN 220453Z AUTO 07006KT 10SM SCT080 BKN100 11/06 A3007 RMK AO2
       SLP151 T01110056

METAR KSKX 220655Z AUTO 02004KT 10SM FEW046 SCT055 OVC100 07/05 A3019
       RMK AO1 P0001
METAR KSKX 220635Z AUTO 36003KT 10SM BKN046 OVC055 08/05 A3019 RMK AO1
       P0001
METAR KSKX 220615Z AUTO 35004KT 8SM BKN049 OVC055 07/05 A3019 RMK
       AO1

KLVS 220533Z 2206/2306 21008KT 5SM BR OVC005
      TEMPO 2206/2210 2SM BR
     FM221000 21008KT 2SM BR OVC002
     FM221600 22013KT P6SM SCT015 BKN050
     FM222100 22015KT P6SM SCT060 SCT130
METAR KLVS 220653Z AUTO 18010KT 1 3/4SM BR BKN002 OVC041 09/09 A3016 RMK
       AO2 SLP137 T00940089 401720050
SPECI KLVS 220645Z AUTO 19010KT 7SM BKN003 BKN034 OVC041 09/09 A3016 RMK
       AO2 T00940089
SPECI KLVS 220600Z AUTO 20009KT 10SM SCT006 BKN055 OVC085 09/09 A3016
       RMK AO2 T00940089

METAR KRTN 220653Z AUTO 00000KT 10SM BKN009 09/08 A3010 RMK AO2 CIG
       007V012 SLP134 T00890083 401940022
SPECI KRTN 220648Z AUTO 00000KT 10SM BKN009 09/08 A3010 RMK AO2
SPECI KRTN 220625Z AUTO 22003KT 10SM FEW009 09/08 A3010 RMK AO2
       T00890078

METAR KCAO 220655Z AUTO 20012KT 10SM CLR 12/09 A3007 RMK AO2 SLP134
       T01170094 402280094
METAR KCAO 220555Z AUTO 21010KT 10SM CLR 12/09 A3007 RMK AO2 SLP132
       T01220089 10183 20122 58001
METAR KCAO 220455Z AUTO 22011KT 10SM CLR 13/09 A3007 RMK AO2 SLP136
       T01280089

Albuquerque (KABX) 10/22/14 06:52 UTC
Radar VAD winds      Height      Dir/Spd(kt)
                  20000 FT MSL...022/010
                  16000 FT MSL...351/023
                  15000 FT MSL...003/022
                  14000 FT MSL...353/023
                  13800 FT MSL...000/022
                  13000 FT MSL...354/021
                  12200 FT MSL...346/019
                  12000 FT MSL...345/018
                  11000 FT MSL...336/015
                  10400 FT MSL...323/017
                  10000 FT MSL...326/015
                   9000 FT MSL...303/012
                   8700 FT MSL...300/015
                   8000 FT MSL...245/016
                   6900 FT MSL...196/015
                   6300 FT MSL...187/011

Albuquerque Aviation Discussion
Issued at 0533 UTC Wednesday, October 22, 2014

.AVIATION...
06Z TAF CYCLE
ISOLD SHOWERS AND TSTMS MOVG NORTHEAST OVER THE EAST CENTRAL
PLAINS AND TO THE EAST AND SOUTHEAST OVER THE WEST AND CENTRAL.
THIS ACTIVITY LOOKS TO PERSIST AS THE UPPER TROUGH AXIS TRACKS
OVER NEW MEXICO THROUGH 12Z. OTHERWISE...HIGHER TERRAIN WILL BE
OBSCD IN MVFR TO IFR CIGS/VSBYS IN BR UNTIL AROUND 16Z FROM THE EAST
SLOPES OF THE CENTRAL MT CHAIN AND OVER PORTIONS OF THE EASTERN
PLAINS AS LOW LEVEL MOISTURE REMAINS PLENTIFUL AND SFC LEE TROUGH
KEEPS LOW LEVEL WINDS GENERALLY OUT OF THE SOUTH. 

* * * * * Winds and Temperatures Aloft Forecasts * * * * *

DATA BASED ON 220000Z    
VALID 220600Z   FOR USE 0500-0900Z. TEMPS NEG ABV 24000
FT  3000    6000   9000    12000   18000   24000  30000  34000  39000
SLC      9900    2909+02 2632-03 2640-17 2747-28 295043 294849 303153
BCE                      2521+01 2627-13 2833-25 314642 315053 295459
LND              2715+03 2529-03 2439-17 2250-29 215844 224749 234853
RKS              2818    2425-02 2444-17 2346-29 215244 224150 234853
GJT              2412+09 2521+01 2632-15 2431-27 242943 243551 234656
FMN              2208+10 2713+01 2714-13 2522-26 272442 233350 234954
ABQ              2110+09 2711+01 2713-12 2624-23 233940 224849 226352
MBW              2727    2526-01 2329-15 2235-27 215544 216351 215652
DEN              2815+07 2517+00 2122-13 2121-24 213441 225551 215852
PUB              2717+09 2214+03 2121-12 2219-23 213939 225249 225953
ALS                      2718+00 2518-12 2317-23 223740 225350 215654
TCC      2129    2120+08 2117+02 2316-12 2320-21 233737 234846 245652
BFF      3018    2815+08 2113+01 2123-13 2126-25 214141 225850 216652
GLD      2041    2132+08 2025+03 1921-11 2122-24 233139 234447 215452
GCK      2036+14 2025+07 2031+04 2018-11 2221-23 262137 253446 223952
GAG      2026+13 1919+09 1922+03 2015-12 2115-23 292136 273044 233052
AMA      1928    2120+07 2120+02 2117-11 2117-22 262836 264145 243953
---------------------------------------------------------------------

DATA BASED ON 220000Z    
VALID 221200Z   FOR USE 0900-1800Z. TEMPS NEG ABV 24000
FT  3000    6000   9000    12000   18000   24000  30000  34000  39000
SLC      9900    9900+01 2729-03 2726-15 2942-25 307242 307051 305856
BCE                      2712+01 2828-12 3042-23 315241 315851 326458
LND              2910+01 2817-05 2730-19 2844-29 274243 274048 263052
RKS              2916    2628-04 2742-16 2844-28 295144 284949 273353
GJT              2510+08 2617+00 2627-15 2735-26 304843 305151 303456
FMN              2811+09 2711+01 2725-13 2826-25 324041 323951 282557
ABQ              2905+08 3211+01 2815-12 2918-24 262241 253150 253654
MBW              2821    2725-02 2538-16 2443-28 215644 224950 243653
DEN              3014+07 3019+00 2721-14 2533-27 214443 224851 224754
PUB              2912+08 3116+01 2619-13 2428-25 224142 225050 225054
ALS                      3015+01 2720-12 2623-26 242842 243850 234154
TCC      2224    2513+07 2415+01 2220-12 2321-23 234039 235747 237153
BFF      3316    3115+05 2818-01 2323-14 2130-25 204342 206053 225954
GLD      2918    2123+08 2227+02 2132-12 2132-25 224039 225149 226654
GCK      2135+13 2128+08 2226+01 2029-13 2032-24 223838 224848 236753
GAG      2222+13 2119+07 2022+01 2023-12 2025-23 233537 244745 245452
AMA      2224    2222+07 2219+01 2125-12 2124-21 234137 235646 236853
---------------------------------------------------------------------

DATA BASED ON 220000Z    
VALID 230000Z   FOR USE 1800-0500Z. TEMPS NEG ABV 24000
FT  3000    6000   9000    12000   18000   24000  30000  34000  39000
SLC      9900    2312+06 2519+00 2833-13 2640-23 274739 296250 299458
BCE                      2608+02 2928-11 2830-22 303838 306348 317358
LND              2711+04 2822+00 2725-14 2837-25 306941 307051 307559
RKS              2512    2633-02 2830-13 2936-24 306240 306250 307459
GJT              2410+09 2316+02 2927-12 3031-23 315639 316049 326758
FMN              2705+10 2612+02 2928-11 3127-22 324639 335149 335957
ABQ              2507+10 2914+03 3124-10 3031-23 334140 344749 344156
MBW              2621    2733-02 2729-14 2940-26 305541 316151 305758
DEN              1806+09 2313+01 2730-15 2929-25 304341 315251 314756
PUB              2108+10 2619+03 2927-14 2933-24 313941 314350 313656
ALS                      2411+03 2920-12 3030-23 314541 325250 334657
TCC      2014    2411+09 3112+03 3019-11 3222-23 343441 322850 292555
BFF      3007    2825+04 2739-02 2837-14 2944-28 305142 305251 294455
GLD      9900    3011+07 3017+01 2928-14 2830-26 283041 293250 273056
GCK      2214+14 3509+07 3115+01 2921-12 2823-25 234340 234250 263756
GAG      2314+12 2518+07 2519+01 2720-11 2421-24 222140 223251 254755
AMA      2122    2612+08 3012+02 3117-11 2924-24 223340 233650 253755
---------------------------------------------------------------------

This product is updated automatically at approximately 10, 30 and 50
minutes after each hour, 24 hours per day, 7 days per week.  It may
become unavailable at times due to system outages without prior notice.
Users are advised to check the time at the top of the product to ensure
that it is current.  Furthermore, content and format of the product are
subject to change without prior notice.

Comments and suggestions are welcome and should be directed to one of
the addresses or phone numbers shown at the bottom of this page.  In
order to expedite a response to comments or suggestions, be sure to
mention your interest in the hot-air balloon forecast.

USA.gov is the U.S. government's official web portal to all federal, state and local government web resources and services.